sensor_id;sensor_type;location;lat;lon;timestamp;pressure;altitude;pressure_sealevel;temperature;humidity
76746;BME280;65671;49.976;20.038;2023-06-14T00:02:11;97875.06;;;11.15;100.00
76746;BME280;65671;49.976;20.038;2023-06-14T00:04:37;97878.94;;;11.10;100.00
76746;BME280;65671;49.976;20.038;2023-06-14T00:07:05;97876.69;;;11.02;100.00
76746;BME280;65671;49.976;20.038;2023-06-14T00:09:33;97869.31;;;11.06;100.00
76746;BME280;65671;49.976;20.038;2023-06-14T00:11:58;97873.94;;;11.09;100.00
76746;BME280;65671;49.976;20.038;2023-06-14T00:14:24;97877.84;;;11.01;100.00
76746;BME280;65671;49.976;20.038;2023-06-14T00:16:49;97871.28;;;10.98;100.00
76746;BME280;65671;49.976;20.038;2023-06-14T00:19:17;97868.88;;;11.11;100.00
76746;BME280;65671;49.976;20.038;2023-06-14T00:21:43;97884.34;;;11.14;100.00
76746;BME280;65671;49.976;20.038;2023-06-14T00:24:08;97871.56;;;11.18;100.00
76746;BME280;65671;49.976;20.038;2023-06-14T00:26:34;97868.88;;;11.11;100.00
76746;BME280;65671;49.976;20.038;2023-06-14T00:28:59;97870.44;;;11.12;100.00
76746;BME280;65671;49.976;20.038;2023-06-14T00:31:25;97873.53;;;11.10;100.00
76746;BME280;65671;49.976;20.038;2023-06-14T00:33:50;97874.28;;;11.14;100.00
76746;BME280;65671;49.976;20.038;2023-06-14T00:36:16;97873.50;;;11.14;100.00
76746;BME280;65671;49.976;20.038;2023-06-14T00:38:41;97875.81;;;11.15;100.00
76746;BME280;65671;49.976;20.038;2023-06-14T00:41:07;97873.47;;;11.21;100.00
76746;BME280;65671;49.976;20.038;2023-06-14T00:43:32;97865.69;;;11.23;100.00
76746;BME280;65671;49.976;20.038;2023-06-14T00:46:00;97872.28;;;11.22;100.00
76746;BME280;65671;49.976;20.038;2023-06-14T00:48:25;97859.94;;;11.14;100.00
76746;BME280;65671;49.976;20.038;2023-06-14T00:50:52;97872.66;;;11.24;100.00
76746;BME280;65671;49.976;20.038;2023-06-14T00:53:18;97860.31;;;11.19;100.00
76746;BME280;65671;49.976;20.038;2023-06-14T00:55:46;97858.38;;;11.16;100.00
76746;BME280;65671;49.976;20.038;2023-06-14T00:58:12;97859.06;;;11.31;100.00
76746;BME280;65671;49.976;20.038;2023-06-14T01:00:37;97852.91;;;11.27;100.00
76746;BME280;65671;49.976;20.038;2023-06-14T01:03:03;97855.28;;;11.18;100.00
76746;BME280;65671;49.976;20.038;2023-06-14T01:05:29;97836.00;;;11.09;100.00
76746;BME280;65671;49.976;20.038;2023-06-14T01:08:19;97845.19;;;11.22;100.00
76746;BME280;65671;49.976;20.038;2023-06-14T01:11:16;97843.31;;;11.15;100.00
76746;BME280;65671;49.976;20.038;2023-06-14T01:13:46;97838.22;;;11.21;100.00
76746;BME280;65671;49.976;20.038;2023-06-14T01:16:11;97842.13;;;11.16;100.00
76746;BME280;65671;49.976;20.038;2023-06-14T01:18:37;97843.66;;;11.21;100.00
76746;BME280;65671;49.976;20.038;2023-06-14T01:21:03;97841.66;;;11.25;100.00
76746;BME280;65671;49.976;20.038;2023-06-14T01:23:32;97842.84;;;11.24;100.00
76746;BME280;65671;49.976;20.038;2023-06-14T01:26:00;97837.78;;;11.26;100.00
76746;BME280;65671;49.976;20.038;2023-06-14T01:28:28;97841.66;;;11.25;100.00
76746;BME280;65671;49.976;20.038;2023-06-14T01:30:59;97836.66;;;11.24;100.00
76746;BME280;65671;49.976;20.038;2023-06-14T01:33:29;97824.66;;;11.25;100.00
76746;BME280;65671;49.976;20.038;2023-06-14T01:35:56;97826.84;;;11.37;100.00
76746;BME280;65671;49.976;20.038;2023-06-14T01:38:24;97823.34;;;11.40;100.00
76746;BME280;65671;49.976;20.038;2023-06-14T01:40:50;97819.13;;;11.39;100.00
76746;BME280;65671;49.976;20.038;2023-06-14T01:43:18;97820.25;;;11.41;100.00
76746;BME280;65671;49.976;20.038;2023-06-14T01:45:45;97830.03;;;11.28;100.00
76746;BME280;65671;49.976;20.038;2023-06-14T01:48:12;97818.78;;;11.33;100.00
76746;BME280;65671;49.976;20.038;2023-06-14T01:50:38;97817.50;;;11.45;100.00
76746;BME280;65671;49.976;20.038;2023-06-14T01:53:07;97818.16;;;11.59;100.00
76746;BME280;65671;49.976;20.038;2023-06-14T01:55:33;97817.13;;;11.43;100.00
76746;BME280;65671;49.976;20.038;2023-06-14T01:58:05;97819.91;;;11.36;100.00
76746;BME280;65671;49.976;20.038;2023-06-14T02:00:30;97826.91;;;11.33;100.00
76746;BME280;65671;49.976;20.038;2023-06-14T02:02:56;97826.50;;;11.35;100.00
76746;BME280;65671;49.976;20.038;2023-06-14T02:05:21;97821.50;;;11.33;100.00
76746;BME280;65671;49.976;20.038;2023-06-14T02:07:47;97826.56;;;11.28;100.00
76746;BME280;65671;49.976;20.038;2023-06-14T02:10:13;97827.75;;;11.23;100.00
76746;BME280;65671;49.976;20.038;2023-06-14T02:12:39;97827.78;;;11.19;100.00
76746;BME280;65671;49.976;20.038;2023-06-14T02:15:05;97827.31;;;11.28;100.00
76746;BME280;65671;49.976;20.038;2023-06-14T02:17:32;97826.94;;;11.30;100.00
76746;BME280;65671;49.976;20.038;2023-06-14T02:19:57;97818.38;;;11.31;100.00
76746;BME280;65671;49.976;20.038;2023-06-14T02:22:23;97816.41;;;11.39;100.00
76746;BME280;65671;49.976;20.038;2023-06-14T02:24:48;97827.28;;;11.35;100.00
76746;BME280;65671;49.976;20.038;2023-06-14T02:27:15;97828.06;;;11.32;100.00
76746;BME280;65671;49.976;20.038;2023-06-14T02:29:40;97815.31;;;11.29;100.00
76746;BME280;65671;49.976;20.038;2023-06-14T02:32:06;97824.16;;;11.37;100.00
76746;BME280;65671;49.976;20.038;2023-06-14T02:34:33;97819.13;;;11.35;100.00
76746;BME280;65671;49.976;20.038;2023-06-14T02:36:59;97827.16;;;11.46;100.00
76746;BME280;65671;49.976;20.038;2023-06-14T02:39:25;97818.69;;;11.40;100.00
76746;BME280;65671;49.976;20.038;2023-06-14T02:41:50;97823.41;;;11.36;100.00
76746;BME280;65671;49.976;20.038;2023-06-14T02:44:18;97817.59;;;11.34;100.00
76746;BME280;65671;49.976;20.038;2023-06-14T02:46:44;97814.53;;;11.32;100.00
76746;BME280;65671;49.976;20.038;2023-06-14T02:49:11;97814.53;;;11.32;100.00
76746;BME280;65671;49.976;20.038;2023-06-14T02:51:36;97818.81;;;11.26;100.00
76746;BME280;65671;49.976;20.038;2023-06-14T02:54:02;97817.66;;;11.27;100.00
76746;BME280;65671;49.976;20.038;2023-06-14T02:56:28;97821.84;;;11.35;100.00
76746;BME280;65671;49.976;20.038;2023-06-14T02:58:54;97826.44;;;11.42;100.00
76746;BME280;65671;49.976;20.038;2023-06-14T03:01:20;97817.56;;;11.38;100.00
76746;BME280;65671;49.976;20.038;2023-06-14T03:03:47;97823.75;;;11.42;100.00
76746;BME280;65671;49.976;20.038;2023-06-14T03:06:12;97819.09;;;11.42;100.00
76746;BME280;65671;49.976;20.038;2023-06-14T03:08:40;97820.56;;;11.50;100.00
76746;BME280;65671;49.976;20.038;2023-06-14T03:11:07;97818.69;;;11.44;100.00
76746;BME280;65671;49.976;20.038;2023-06-14T03:13:33;97825.22;;;11.46;100.00
76746;BME280;65671;49.976;20.038;2023-06-14T03:15:59;97825.97;;;11.54;100.00
76746;BME280;65671;49.976;20.038;2023-06-14T03:18:28;97825.97;;;11.50;100.00
76746;BME280;65671;49.976;20.038;2023-06-14T03:20:55;97815.06;;;11.57;100.00
76746;BME280;65671;49.976;20.038;2023-06-14T03:23:23;97820.44;;;11.61;100.00
76746;BME280;65671;49.976;20.038;2023-06-14T03:25:48;97825.09;;;11.60;100.00
76746;BME280;65671;49.976;20.038;2023-06-14T03:28:14;97823.91;;;11.65;100.00
76746;BME280;65671;49.976;20.038;2023-06-14T03:30:39;97827.81;;;11.60;100.00
76746;BME280;65671;49.976;20.038;2023-06-14T03:33:05;97819.25;;;11.65;100.00
76746;BME280;65671;49.976;20.038;2023-06-14T03:35:30;97827.81;;;11.60;100.00
76746;BME280;65671;49.976;20.038;2023-06-14T03:37:55;97822.44;;;11.57;100.00
76746;BME280;65671;49.976;20.038;2023-06-14T03:40:21;97824.28;;;11.63;100.00
76746;BME280;65671;49.976;20.038;2023-06-14T03:42:47;97823.47;;;11.73;100.00
76746;BME280;65671;49.976;20.038;2023-06-14T03:45:12;97824.28;;;11.70;100.00
76746;BME280;65671;49.976;20.038;2023-06-14T03:47:38;97822.72;;;11.69;100.00
76746;BME280;65671;49.976;20.038;2023-06-14T03:50:04;97827.06;;;11.60;100.00
76746;BME280;65671;49.976;20.038;2023-06-14T03:52:29;97824.41;;;11.53;100.00
76746;BME280;65671;49.976;20.038;2023-06-14T03:54:56;97817.28;;;11.69;100.00
76746;BME280;65671;49.976;20.038;2023-06-14T03:57:23;97826.59;;;11.68;100.00
76746;BME280;65671;49.976;20.038;2023-06-14T03:59:49;97823.91;;;11.65;100.00
76746;BME280;65671;49.976;20.038;2023-06-14T04:02:15;97830.53;;;11.60;100.00
76746;BME280;65671;49.976;20.038;2023-06-14T04:04:44;97834.56;;;11.45;100.00
76746;BME280;65671;49.976;20.038;2023-06-14T04:07:13;97838.88;;;11.36;100.00
76746;BME280;65671;49.976;20.038;2023-06-14T04:09:39;97835.31;;;11.46;100.00
76746;BME280;65671;49.976;20.038;2023-06-14T04:12:05;97828.41;;;11.38;100.00
76746;BME280;65671;49.976;20.038;2023-06-14T04:14:31;97840.00;;;11.42;100.00
76746;BME280;65671;49.976;20.038;2023-06-14T04:16:58;97834.94;;;11.44;100.00
76746;BME280;65671;49.976;20.038;2023-06-14T04:19:23;97836.47;;;11.48;100.00
76746;BME280;65671;49.976;20.038;2023-06-14T04:21:49;97826.91;;;11.33;100.00
76746;BME280;65671;49.976;20.038;2023-06-14T04:24:15;97825.22;;;11.46;100.00
76746;BME280;65671;49.976;20.038;2023-06-14T04:26:42;97840.69;;;11.53;100.00
76746;BME280;65671;49.976;20.038;2023-06-14T04:29:10;97848.53;;;11.40;100.00
76746;BME280;65671;49.976;20.038;2023-06-14T04:31:42;97845.41;;;11.45;100.00
76746;BME280;65671;49.976;20.038;2023-06-14T04:34:09;97847.69;;;11.47;100.00
76746;BME280;65671;49.976;20.038;2023-06-14T04:36:42;97846.44;;;11.58;100.00
76746;BME280;65671;49.976;20.038;2023-06-14T04:39:17;97845.31;;;11.52;100.00
76746;BME280;65671;49.976;20.038;2023-06-14T04:41:44;97846.91;;;11.50;100.00
76746;BME280;65671;49.976;20.038;2023-06-14T04:44:09;97841.09;;;11.51;100.00
76746;BME280;65671;49.976;20.038;2023-06-14T04:46:35;97839.84;;;11.59;100.00
76746;BME280;65671;49.976;20.038;2023-06-14T04:49:14;97842.94;;;11.58;100.00
76746;BME280;65671;49.976;20.038;2023-06-14T04:51:49;97853.91;;;11.44;100.00
76746;BME280;65671;49.976;20.038;2023-06-14T04:54:23;97850.38;;;11.50;100.00
76746;BME280;65671;49.976;20.038;2023-06-14T04:56:51;97839.19;;;11.48;100.00
76746;BME280;65671;49.976;20.038;2023-06-14T04:59:16;97841.38;;;11.60;100.00
76746;BME280;65671;49.976;20.038;2023-06-14T05:01:43;97844.13;;;11.57;100.00
76746;BME280;65671;49.976;20.038;2023-06-14T05:04:18;97840.97;;;11.65;100.00
76746;BME280;65671;49.976;20.038;2023-06-14T05:06:44;97844.03;;;11.71;100.00
76746;BME280;65671;49.976;20.038;2023-06-14T05:09:13;97844.38;;;11.73;100.00
76746;BME280;65671;49.976;20.038;2023-06-14T05:11:40;97844.75;;;11.75;100.00
76746;BME280;65671;49.976;20.038;2023-06-14T05:14:07;97841.63;;;11.80;100.00
76746;BME280;65671;49.976;20.038;2023-06-14T05:16:33;97837.31;;;11.83;100.00
76746;BME280;65671;49.976;20.038;2023-06-14T05:18:58;97845.78;;;11.88;100.00
76746;BME280;65671;49.976;20.038;2023-06-14T05:21:24;97849.56;;;11.98;100.00
76746;BME280;65671;49.976;20.038;2023-06-14T05:23:49;97849.56;;;11.98;100.00
76746;BME280;65671;49.976;20.038;2023-06-14T05:26:16;97843.09;;;11.88;100.00
76746;BME280;65671;49.976;20.038;2023-06-14T05:28:41;97853.88;;;11.95;100.00
76746;BME280;65671;49.976;20.038;2023-06-14T05:31:07;97852.66;;;12.00;100.00
76746;BME280;65671;49.976;20.038;2023-06-14T05:33:32;97851.84;;;12.03;100.00
76746;BME280;65671;49.976;20.038;2023-06-14T05:35:58;97854.56;;;12.03;100.00
76746;BME280;65671;49.976;20.038;2023-06-14T05:38:23;97844.84;;;12.05;100.00
76746;BME280;65671;49.976;20.038;2023-06-14T05:40:49;97854.22;;;11.97;100.00
76746;BME280;65671;49.976;20.038;2023-06-14T05:43:14;97854.84;;;12.12;100.00
76746;BME280;65671;49.976;20.038;2023-06-14T05:45:39;97850.19;;;12.12;100.00
76746;BME280;65671;49.976;20.038;2023-06-14T05:48:05;97856.97;;;12.31;100.00
76746;BME280;65671;49.976;20.038;2023-06-14T05:50:30;97859.19;;;12.06;100.00
76746;BME280;65671;49.976;20.038;2023-06-14T05:52:56;97856.09;;;12.04;100.00
76746;BME280;65671;49.976;20.038;2023-06-14T05:55:21;97862.06;;;11.88;100.00
76746;BME280;65671;49.976;20.038;2023-06-14T05:57:47;97858.88;;;11.97;100.00
76746;BME280;65671;49.976;20.038;2023-06-14T06:00:13;97869.09;;;11.82;100.00
76746;BME280;65671;49.976;20.038;2023-06-14T06:02:43;97866.13;;;11.69;100.00
76746;BME280;65671;49.976;20.038;2023-06-14T06:05:12;97866.88;;;11.73;100.00
76746;BME280;65671;49.976;20.038;2023-06-14T06:07:38;97867.56;;;11.81;100.00
76746;BME280;65671;49.976;20.038;2023-06-14T06:10:05;97876.44;;;11.85;100.00
76746;BME280;65671;49.976;20.038;2023-06-14T06:12:31;97873.03;;;11.78;100.00
76746;BME280;65671;49.976;20.038;2023-06-14T06:14:58;97874.19;;;11.77;100.00
76746;BME280;65671;49.976;20.038;2023-06-14T06:17:25;97873.88;;;11.67;100.00
76746;BME280;65671;49.976;20.038;2023-06-14T06:19:50;97867.75;;;11.60;100.00
76746;BME280;65671;49.976;20.038;2023-06-14T06:22:16;97872.59;;;11.83;100.00
76746;BME280;65671;49.976;20.038;2023-06-14T06:24:42;97871.88;;;11.75;100.00
76746;BME280;65671;49.976;20.038;2023-06-14T06:27:07;97882.38;;;11.69;100.00
76746;BME280;65671;49.976;20.038;2023-06-14T06:29:33;97874.97;;;11.77;100.00
76746;BME280;65671;49.976;20.038;2023-06-14T06:32:00;97880.72;;;11.83;100.00
76746;BME280;65671;49.976;20.038;2023-06-14T06:34:25;97886.94;;;11.83;100.00
76746;BME280;65671;49.976;20.038;2023-06-14T06:36:51;97895.44;;;11.85;100.00
76746;BME280;65671;49.976;20.038;2023-06-14T06:39:16;97891.53;;;11.90;100.00
76746;BME280;65671;49.976;20.038;2023-06-14T06:41:42;97899.59;;;11.97;100.00
76746;BME280;65671;49.976;20.038;2023-06-14T06:44:07;97899.22;;;11.95;100.00
76746;BME280;65671;49.976;20.038;2023-06-14T06:46:33;97901.56;;;11.93;100.00
76746;BME280;65671;49.976;20.038;2023-06-14T06:48:59;97903.81;;;12.01;100.00
76746;BME280;65671;49.976;20.038;2023-06-14T06:51:25;97900.75;;;11.96;100.00
76746;BME280;65671;49.976;20.038;2023-06-14T06:53:54;97908.38;;;12.08;100.00
76746;BME280;65671;49.976;20.038;2023-06-14T06:56:20;97905.59;;;12.15;100.00
76746;BME280;65671;49.976;20.038;2023-06-14T06:58:50;97903.69;;;12.12;100.00
76746;BME280;65671;49.976;20.038;2023-06-14T07:01:17;97909.75;;;12.26;100.00
76746;BME280;65671;49.976;20.038;2023-06-14T07:03:43;97915.47;;;12.36;100.00
76746;BME280;65671;49.976;20.038;2023-06-14T07:06:09;97919.75;;;12.37;100.00
76746;BME280;65671;49.976;20.038;2023-06-14T07:08:36;97919.34;;;12.35;100.00
76746;BME280;65671;49.976;20.038;2023-06-14T07:11:04;97913.50;;;12.40;100.00
76746;BME280;65671;49.976;20.038;2023-06-14T07:13:30;97913.84;;;12.42;100.00
76746;BME280;65671;49.976;20.038;2023-06-14T07:16:00;97916.66;;;12.68;100.00
76746;BME280;65671;49.976;20.038;2023-06-14T07:18:27;97916.41;;;12.56;100.00
76746;BME280;65671;49.976;20.038;2023-06-14T07:20:53;97921.00;;;12.62;100.00
76746;BME280;65671;49.976;20.038;2023-06-14T07:23:23;97924.97;;;12.54;100.00
76746;BME280;65671;49.976;20.038;2023-06-14T07:25:49;97922.16;;;12.61;100.00
76746;BME280;65671;49.976;20.038;2023-06-14T07:28:17;97917.84;;;12.64;100.00
76746;BME280;65671;49.976;20.038;2023-06-14T07:30:43;97926.00;;;12.64;100.00
76746;BME280;65671;49.976;20.038;2023-06-14T07:33:09;97929.69;;;12.80;100.00
76746;BME280;65671;49.976;20.038;2023-06-14T07:35:35;97926.06;;;12.91;100.00
76746;BME280;65671;49.976;20.038;2023-06-14T07:38:01;97921.78;;;12.63;100.00
76746;BME280;65671;49.976;20.038;2023-06-14T07:40:26;97930.75;;;12.90;100.00
76746;BME280;65671;49.976;20.038;2023-06-14T07:42:51;97932.50;;;12.73;100.00
76746;BME280;65671;49.976;20.038;2023-06-14T07:45:19;97930.47;;;12.81;100.00
76746;BME280;65671;49.976;20.038;2023-06-14T07:47:44;97936.75;;;12.74;100.00
76746;BME280;65671;49.976;20.038;2023-06-14T07:50:10;97937.97;;;12.70;100.00
76746;BME280;65671;49.976;20.038;2023-06-14T07:52:35;97935.94;;;12.77;100.00
76746;BME280;65671;49.976;20.038;2023-06-14T07:55:01;97931.50;;;12.91;100.00
76746;BME280;65671;49.976;20.038;2023-06-14T07:57:26;97933.78;;;12.96;100.00
76746;BME280;65671;49.976;20.038;2023-06-14T07:59:52;97940.06;;;12.89;100.00
76746;BME280;65671;49.976;20.038;2023-06-14T08:02:18;97932.97;;;12.99;100.00
76746;BME280;65671;49.976;20.038;2023-06-14T08:04:43;97939.44;;;12.78;100.00
76746;BME280;65671;49.976;20.038;2023-06-14T08:07:09;97937.34;;;12.89;100.00
76746;BME280;65671;49.976;20.038;2023-06-14T08:09:35;97935.41;;;12.90;100.00
76746;BME280;65671;49.976;20.038;2023-06-14T08:12:06;97937.63;;;12.98;100.00
76746;BME280;65671;49.976;20.038;2023-06-14T08:14:33;97936.00;;;13.04;100.00
76746;BME280;65671;49.976;20.038;2023-06-14T08:16:59;97938.94;;;13.17;100.00
76746;BME280;65671;49.976;20.038;2023-06-14T08:19:24;97933.25;;;13.34;100.00
76746;BME280;65671;49.976;20.038;2023-06-14T08:21:50;97930.78;;;13.43;100.00
76746;BME280;65671;49.976;20.038;2023-06-14T08:24:15;97936.13;;;13.51;100.00
76746;BME280;65671;49.976;20.038;2023-06-14T08:26:41;97937.41;;;13.69;100.00
76746;BME280;65671;49.976;20.038;2023-06-14T08:29:06;97932.31;;;13.71;100.00
76746;BME280;65671;49.976;20.038;2023-06-14T08:31:32;97929.16;;;13.50;100.00
76746;BME280;65671;49.976;20.038;2023-06-14T08:33:58;97935.25;;;13.57;100.00
76746;BME280;65671;49.976;20.038;2023-06-14T08:36:23;97939.13;;;13.33;100.00
76746;BME280;65671;49.976;20.038;2023-06-14T08:38:49;97945.94;;;13.18;100.00
76746;BME280;65671;49.976;20.038;2023-06-14T08:41:20;97942.09;;;13.15;100.00
76746;BME280;65671;49.976;20.038;2023-06-14T08:43:47;97953.09;;;13.05;100.00
76746;BME280;65671;49.976;20.038;2023-06-14T08:46:12;97951.22;;;12.98;100.00
76746;BME280;65671;49.976;20.038;2023-06-14T08:48:41;97952.88;;;12.88;100.00
76746;BME280;65671;49.976;20.038;2023-06-14T08:51:09;97953.19;;;12.94;100.00
76746;BME280;65671;49.976;20.038;2023-06-14T08:53:37;97959.34;;;13.02;100.00
76746;BME280;65671;49.976;20.038;2023-06-14T08:56:08;97952.34;;;13.01;100.00
76746;BME280;65671;49.976;20.038;2023-06-14T08:58:44;97955.09;;;12.97;100.00
76746;BME280;65671;49.976;20.038;2023-06-14T09:01:11;97963.47;;;13.13;100.00
76746;BME280;65671;49.976;20.038;2023-06-14T09:03:42;97967.72;;;13.14;100.00
76746;BME280;65671;49.976;20.038;2023-06-14T09:06:08;97965.59;;;13.29;100.00
76746;BME280;65671;49.976;20.038;2023-06-14T09:08:42;97969.13;;;13.26;100.00
76746;BME280;65671;49.976;20.038;2023-06-14T09:11:10;97970.88;;;13.13;100.00
76746;BME280;65671;49.976;20.038;2023-06-14T09:13:36;97970.91;;;13.09;100.00
76746;BME280;65671;49.976;20.038;2023-06-14T09:16:02;97975.84;;;12.84;100.00
76746;BME280;65671;49.976;20.038;2023-06-14T09:18:38;97978.13;;;12.89;100.00
76746;BME280;65671;49.976;20.038;2023-06-14T09:21:07;97979.78;;;12.79;100.00
76746;BME280;65671;49.976;20.038;2023-06-14T09:23:46;97975.25;;;12.69;100.00
76746;BME280;65671;49.976;20.038;2023-06-14T09:26:19;97978.28;;;12.75;100.00
76746;BME280;65671;49.976;20.038;2023-06-14T09:28:49;97978.34;;;13.02;100.00
76746;BME280;65671;49.976;20.038;2023-06-14T09:31:20;97979.38;;;13.15;100.00
76746;BME280;65671;49.976;20.038;2023-06-14T09:33:48;97976.88;;;13.27;100.00
76746;BME280;65671;49.976;20.038;2023-06-14T09:36:18;97972.34;;;13.17;100.00
76746;BME280;65671;49.976;20.038;2023-06-14T09:39:01;97975.25;;;13.33;100.00
76746;BME280;65671;49.976;20.038;2023-06-14T09:41:37;97975.56;;;13.39;100.00
76746;BME280;65671;49.976;20.038;2023-06-14T09:44:05;97969.09;;;13.56;100.00
76746;BME280;65671;49.976;20.038;2023-06-14T09:46:31;97973.34;;;13.57;100.00
76746;BME280;65671;49.976;20.038;2023-06-14T09:49:01;97960.78;;;13.40;100.00
76746;BME280;65671;49.976;20.038;2023-06-14T09:51:27;97964.59;;;13.46;100.00
76746;BME280;65671;49.976;20.038;2023-06-14T09:53:55;97964.66;;;13.39;100.00
76746;BME280;65671;49.976;20.038;2023-06-14T09:56:31;97964.25;;;13.67;100.00
76746;BME280;65671;49.976;20.038;2023-06-14T09:58:59;97968.03;;;13.96;100.00
76746;BME280;65671;49.976;20.038;2023-06-14T10:01:26;97963.31;;;14.01;100.00
76746;BME280;65671;49.976;20.038;2023-06-14T10:03:58;97963.13;;;14.11;100.00
76746;BME280;65671;49.976;20.038;2023-06-14T10:06:28;97964.38;;;14.07;100.00
76746;BME280;65671;49.976;20.038;2023-06-14T10:08:58;97965.28;;;14.00;100.00
76746;BME280;65671;49.976;20.038;2023-06-14T10:11:27;97965.81;;;13.91;100.00
76746;BME280;65671;49.976;20.038;2023-06-14T10:13:55;97972.75;;;13.96;100.00
76746;BME280;65671;49.976;20.038;2023-06-14T10:16:28;97975.31;;;13.80;100.00
76746;BME280;65671;49.976;20.038;2023-06-14T10:19:11;97963.38;;;13.74;100.00
76746;BME280;65671;49.976;20.038;2023-06-14T10:24:28;97966.88;;;13.48;100.00
76746;BME280;65671;49.976;20.038;2023-06-14T10:26:57;97976.28;;;13.43;100.00
76746;BME280;65671;49.976;20.038;2023-06-14T10:29:23;97979.34;;;13.45;100.00
76746;BME280;65671;49.976;20.038;2023-06-14T10:31:50;97969.34;;;13.88;100.00
76746;BME280;65671;49.976;20.038;2023-06-14T10:34:30;97977.41;;;13.95;100.00
76746;BME280;65671;49.976;20.038;2023-06-14T10:37:07;97982.53;;;14.17;100.00
76746;BME280;65671;49.976;20.038;2023-06-14T10:39:46;97981.41;;;14.37;100.00
76746;BME280;65671;49.976;20.038;2023-06-14T10:42:13;97984.66;;;14.29;100.00
76746;BME280;65671;49.976;20.038;2023-06-14T10:44:40;97980.19;;;14.15;100.00
76746;BME280;65671;49.976;20.038;2023-06-14T10:47:32;97977.34;;;14.45;100.00
76746;BME280;65671;49.976;20.038;2023-06-14T10:50:08;97975.56;;;14.78;100.00
76746;BME280;65671;49.976;20.038;2023-06-14T10:52:41;97974.88;;;14.74;100.00
76746;BME280;65671;49.976;20.038;2023-06-14T10:55:07;97982.19;;;14.97;100.00
76746;BME280;65671;49.976;20.038;2023-06-14T10:57:39;97968.56;;;14.77;100.00
76746;BME280;65671;49.976;20.038;2023-06-14T11:00:06;97978.38;;;14.75;100.00
76746;BME280;65671;49.976;20.038;2023-06-14T11:02:50;97964.78;;;14.71;100.00
76746;BME280;65671;49.976;20.038;2023-06-14T11:05:23;97966.63;;;14.58;100.00
76746;BME280;65671;49.976;20.038;2023-06-14T11:08:03;97968.63;;;14.74;100.00
76746;BME280;65671;49.976;20.038;2023-06-14T11:10:37;97967.81;;;14.57;100.00
76746;BME280;65671;49.976;20.038;2023-06-14T11:13:04;97975.91;;;14.80;100.00
76746;BME280;65671;49.976;20.038;2023-06-14T11:15:30;97966.25;;;14.56;100.00
76746;BME280;65671;49.976;20.038;2023-06-14T11:17:56;97970.69;;;14.70;100.00
76746;BME280;65671;49.976;20.038;2023-06-14T11:20:26;97970.19;;;14.55;100.00
76746;BME280;65671;49.976;20.038;2023-06-14T11:22:53;97958.16;;;14.72;100.00
76746;BME280;65671;49.976;20.038;2023-06-14T11:25:19;97959.34;;;14.91;100.00
76746;BME280;65671;49.976;20.038;2023-06-14T11:27:45;97959.84;;;15.05;100.00
76746;BME280;65671;49.976;20.038;2023-06-14T11:30:12;97957.19;;;15.02;96.63
76746;BME280;65671;49.976;20.038;2023-06-14T11:32:38;97960.44;;;15.13;96.09
76746;BME280;65671;49.976;20.038;2023-06-14T11:35:05;97958.00;;;15.71;97.09
76746;BME280;65671;49.976;20.038;2023-06-14T11:37:31;97956.47;;;16.02;93.72
76746;BME280;65671;49.976;20.038;2023-06-14T11:40:00;97953.31;;;16.48;91.90
76746;BME280;65671;49.976;20.038;2023-06-14T11:42:29;97951.38;;;16.33;91.17
76746;BME280;65671;49.976;20.038;2023-06-14T11:44:55;97954.84;;;16.21;98.60
76746;BME280;65671;49.976;20.038;2023-06-14T11:47:24;97950.56;;;16.03;92.53
76746;BME280;65671;49.976;20.038;2023-06-14T11:49:49;97945.91;;;16.33;94.36
76746;BME280;65671;49.976;20.038;2023-06-14T11:52:15;97949.38;;;16.04;93.55
76746;BME280;65671;49.976;20.038;2023-06-14T11:54:41;97932.72;;;16.89;98.35
76746;BME280;65671;49.976;20.038;2023-06-14T11:57:07;97930.09;;;17.10;95.25
76746;BME280;65671;49.976;20.038;2023-06-14T11:59:40;97925.19;;;16.64;93.34
76746;BME280;65671;49.976;20.038;2023-06-14T12:02:06;97921.78;;;17.14;91.98
76746;BME280;65671;49.976;20.038;2023-06-14T12:04:32;97929.47;;;16.65;87.84
76746;BME280;65671;49.976;20.038;2023-06-14T12:07:11;97932.91;;;16.53;90.84
76746;BME280;65671;49.976;20.038;2023-06-14T12:12:20;97924.81;;;18.04;86.33
76746;BME280;65671;49.976;20.038;2023-06-14T12:14:47;97923.69;;;18.14;83.55
76746;BME280;65671;49.976;20.038;2023-06-14T12:17:12;97933.47;;;18.15;83.55
76746;BME280;65671;49.976;20.038;2023-06-14T12:19:42;97922.63;;;18.33;83.33
76746;BME280;65671;49.976;20.038;2023-06-14T12:22:09;97925.34;;;17.65;88.38
76746;BME280;65671;49.976;20.038;2023-06-14T12:24:35;97926.75;;;18.16;83.83
76746;BME280;65671;49.976;20.038;2023-06-14T12:27:01;97926.91;;;18.34;82.48
76746;BME280;65671;49.976;20.038;2023-06-14T12:29:30;97924.88;;;17.41;81.94
76746;BME280;65671;49.976;20.038;2023-06-14T12:31:56;97921.06;;;17.39;85.33
76746;BME280;65671;49.976;20.038;2023-06-14T12:34:25;97921.16;;;17.35;87.40
76746;BME280;65671;49.976;20.038;2023-06-14T12:36:53;97919.59;;;17.84;83.98
76746;BME280;65671;49.976;20.038;2023-06-14T12:39:19;97916.00;;;17.24;83.53
76746;BME280;65671;49.976;20.038;2023-06-14T12:41:45;97910.66;;;17.59;85.71
76746;BME280;65671;49.976;20.038;2023-06-14T12:44:11;97905.44;;;17.99;87.21
76746;BME280;65671;49.976;20.038;2023-06-14T12:46:37;97915.91;;;18.47;82.45
76746;BME280;65671;49.976;20.038;2023-06-14T12:49:05;97909.50;;;18.07;82.38